sensor_id;sensor_type;location;lat;lon;timestamp;P1;durP1;ratioP1;P2;durP2;ratioP2
80101;SDS011;69407;44.966;19.622;2023-07-24T00:00:27;16.40;;;11.23;;
80101;SDS011;69407;44.966;19.622;2023-07-24T00:02:52;24.02;;;10.35;;
80101;SDS011;69407;44.966;19.622;2023-07-24T00:05:18;20.15;;;11.07;;
80101;SDS011;69407;44.966;19.622;2023-07-24T00:07:44;19.42;;;11.30;;
80101;SDS011;69407;44.966;19.622;2023-07-24T00:10:09;17.93;;;11.37;;
80101;SDS011;69407;44.966;19.622;2023-07-24T00:12:34;21.83;;;12.70;;
80101;SDS011;69407;44.966;19.622;2023-07-24T00:15:00;17.95;;;11.63;;
80101;SDS011;69407;44.966;19.622;2023-07-24T00:17:25;18.83;;;11.77;;
80101;SDS011;69407;44.966;19.622;2023-07-24T00:19:50;15.60;;;11.93;;
80101;SDS011;69407;44.966;19.622;2023-07-24T00:22:15;18.65;;;11.45;;
80101;SDS011;69407;44.966;19.622;2023-07-24T00:24:41;16.85;;;10.98;;
80101;SDS011;69407;44.966;19.622;2023-07-24T00:27:06;17.35;;;11.27;;
80101;SDS011;69407;44.966;19.622;2023-07-24T00:29:31;19.07;;;11.57;;
80101;SDS011;69407;44.966;19.622;2023-07-24T00:31:57;18.63;;;12.33;;
80101;SDS011;69407;44.966;19.622;2023-07-24T00:34:22;17.58;;;11.40;;
80101;SDS011;69407;44.966;19.622;2023-07-24T00:36:47;20.97;;;11.67;;
80101;SDS011;69407;44.966;19.622;2023-07-24T00:39:15;16.73;;;11.27;;
80101;SDS011;69407;44.966;19.622;2023-07-24T00:41:41;18.20;;;10.48;;
80101;SDS011;69407;44.966;19.622;2023-07-24T00:44:06;20.80;;;11.70;;
80101;SDS011;69407;44.966;19.622;2023-07-24T00:46:32;17.55;;;11.18;;
80101;SDS011;69407;44.966;19.622;2023-07-24T00:48:58;21.77;;;12.48;;
80101;SDS011;69407;44.966;19.622;2023-07-24T00:51:26;20.10;;;12.75;;
80101;SDS011;69407;44.966;19.622;2023-07-24T00:53:51;22.02;;;12.40;;
80101;SDS011;69407;44.966;19.622;2023-07-24T00:56:16;18.10;;;13.23;;
80101;SDS011;69407;44.966;19.622;2023-07-24T00:58:42;16.27;;;11.85;;
80101;SDS011;69407;44.966;19.622;2023-07-24T01:01:07;15.40;;;12.23;;
80101;SDS011;69407;44.966;19.622;2023-07-24T01:03:33;14.90;;;10.35;;
80101;SDS011;69407;44.966;19.622;2023-07-24T01:06:00;20.73;;;13.45;;
80101;SDS011;69407;44.966;19.622;2023-07-24T01:08:27;16.35;;;11.88;;
80101;SDS011;69407;44.966;19.622;2023-07-24T01:10:52;20.25;;;12.07;;
80101;SDS011;69407;44.966;19.622;2023-07-24T01:13:19;21.23;;;12.25;;
80101;SDS011;69407;44.966;19.622;2023-07-24T01:15:47;17.30;;;12.48;;
80101;SDS011;69407;44.966;19.622;2023-07-24T01:18:13;19.50;;;12.75;;
80101;SDS011;69407;44.966;19.622;2023-07-24T01:20:42;17.02;;;11.85;;
80101;SDS011;69407;44.966;19.622;2023-07-24T01:23:13;19.35;;;12.20;;
80101;SDS011;69407;44.966;19.622;2023-07-24T01:26:13;20.42;;;12.68;;
80101;SDS011;69407;44.966;19.622;2023-07-24T01:28:31;27.70;;;12.50;;
80101;SDS011;69407;44.966;19.622;2023-07-24T01:30:57;20.03;;;12.77;;
80101;SDS011;69407;44.966;19.622;2023-07-24T01:33:22;18.23;;;12.25;;
80101;SDS011;69407;44.966;19.622;2023-07-24T01:35:49;22.60;;;13.07;;
80101;SDS011;69407;44.966;19.622;2023-07-24T01:38:16;20.38;;;12.50;;
80101;SDS011;69407;44.966;19.622;2023-07-24T01:40:41;19.05;;;12.23;;
80101;SDS011;69407;44.966;19.622;2023-07-24T01:43:07;21.90;;;13.88;;
80101;SDS011;69407;44.966;19.622;2023-07-24T01:45:32;21.63;;;12.75;;
80101;SDS011;69407;44.966;19.622;2023-07-24T01:47:57;19.35;;;13.95;;
80101;SDS011;69407;44.966;19.622;2023-07-24T01:50:23;17.80;;;12.85;;
80101;SDS011;69407;44.966;19.622;2023-07-24T01:52:48;16.27;;;12.13;;
80101;SDS011;69407;44.966;19.622;2023-07-24T01:55:13;18.52;;;11.50;;
80101;SDS011;69407;44.966;19.622;2023-07-24T01:57:39;17.73;;;12.10;;
80101;SDS011;69407;44.966;19.622;2023-07-24T02:00:04;18.57;;;12.37;;
80101;SDS011;69407;44.966;19.622;2023-07-24T02:02:31;19.63;;;12.65;;
80101;SDS011;69407;44.966;19.622;2023-07-24T02:04:56;22.33;;;13.02;;
80101;SDS011;69407;44.966;19.622;2023-07-24T02:07:21;20.33;;;12.95;;
80101;SDS011;69407;44.966;19.622;2023-07-24T02:09:47;20.05;;;12.77;;
80101;SDS011;69407;44.966;19.622;2023-07-24T02:12:12;22.47;;;13.40;;
80101;SDS011;69407;44.966;19.622;2023-07-24T02:14:37;18.73;;;11.87;;
80101;SDS011;69407;44.966;19.622;2023-07-24T02:17:02;18.83;;;12.57;;
80101;SDS011;69407;44.966;19.622;2023-07-24T02:19:28;18.23;;;12.95;;
80101;SDS011;69407;44.966;19.622;2023-07-24T02:21:53;19.80;;;13.70;;
80101;SDS011;69407;44.966;19.622;2023-07-24T02:24:18;20.23;;;13.25;;
80101;SDS011;69407;44.966;19.622;2023-07-24T02:26:44;20.90;;;13.93;;
80101;SDS011;69407;44.966;19.622;2023-07-24T02:29:09;22.63;;;13.00;;
80101;SDS011;69407;44.966;19.622;2023-07-24T02:31:34;17.17;;;12.33;;
80101;SDS011;69407;44.966;19.622;2023-07-24T02:33:59;17.83;;;12.48;;
80101;SDS011;69407;44.966;19.622;2023-07-24T02:36:25;22.95;;;13.25;;
80101;SDS011;69407;44.966;19.622;2023-07-24T02:38:50;17.92;;;12.80;;
80101;SDS011;69407;44.966;19.622;2023-07-24T02:41:15;16.58;;;11.98;;
80101;SDS011;69407;44.966;19.622;2023-07-24T02:43:41;17.73;;;12.63;;
80101;SDS011;69407;44.966;19.622;2023-07-24T02:46:06;20.20;;;12.37;;
80101;SDS011;69407;44.966;19.622;2023-07-24T02:48:31;18.20;;;11.50;;
80101;SDS011;69407;44.966;19.622;2023-07-24T02:50:56;18.63;;;13.10;;
80101;SDS011;69407;44.966;19.622;2023-07-24T02:53:22;20.02;;;12.73;;
80101;SDS011;69407;44.966;19.622;2023-07-24T02:55:47;17.60;;;12.27;;
80101;SDS011;69407;44.966;19.622;2023-07-24T02:58:12;18.55;;;12.68;;
80101;SDS011;69407;44.966;19.622;2023-07-24T03:00:38;18.02;;;12.85;;
80101;SDS011;69407;44.966;19.622;2023-07-24T03:03:03;20.90;;;12.27;;
80101;SDS011;69407;44.966;19.622;2023-07-24T03:05:28;24.23;;;13.47;;
80101;SDS011;69407;44.966;19.622;2023-07-24T03:07:54;24.15;;;12.95;;
80101;SDS011;69407;44.966;19.622;2023-07-24T03:10:19;23.47;;;13.60;;
80101;SDS011;69407;44.966;19.622;2023-07-24T03:12:44;20.05;;;13.05;;
80101;SDS011;69407;44.966;19.622;2023-07-24T03:15:10;17.50;;;11.40;;
80101;SDS011;69407;44.966;19.622;2023-07-24T03:17:35;19.52;;;12.15;;
80101;SDS011;69407;44.966;19.622;2023-07-24T03:20:07;20.48;;;13.57;;
80101;SDS011;69407;44.966;19.622;2023-07-24T03:22:33;25.67;;;12.75;;
80101;SDS011;69407;44.966;19.622;2023-07-24T03:24:58;19.10;;;11.63;;
80101;SDS011;69407;44.966;19.622;2023-07-24T03:27:23;19.33;;;13.30;;
80101;SDS011;69407;44.966;19.622;2023-07-24T03:29:49;19.90;;;13.13;;
80101;SDS011;69407;44.966;19.622;2023-07-24T03:32:14;22.97;;;12.63;;
80101;SDS011;69407;44.966;19.622;2023-07-24T03:34:39;18.77;;;12.63;;
80101;SDS011;69407;44.966;19.622;2023-07-24T03:37:05;20.07;;;13.97;;
80101;SDS011;69407;44.966;19.622;2023-07-24T03:39:30;20.90;;;13.73;;
80101;SDS011;69407;44.966;19.622;2023-07-24T03:41:55;20.50;;;14.17;;
80101;SDS011;69407;44.966;19.622;2023-07-24T03:44:20;21.33;;;12.97;;
80101;SDS011;69407;44.966;19.622;2023-07-24T03:46:46;23.47;;;14.73;;
80101;SDS011;69407;44.966;19.622;2023-07-24T03:49:11;25.70;;;13.90;;
80101;SDS011;69407;44.966;19.622;2023-07-24T03:51:36;19.52;;;13.20;;
80101;SDS011;69407;44.966;19.622;2023-07-24T03:54:02;21.13;;;12.80;;
80101;SDS011;69407;44.966;19.622;2023-07-24T03:56:27;19.75;;;12.98;;
80101;SDS011;69407;44.966;19.622;2023-07-24T03:58:52;21.05;;;13.32;;
80101;SDS011;69407;44.966;19.622;2023-07-24T04:01:18;20.58;;;13.55;;
80101;SDS011;69407;44.966;19.622;2023-07-24T04:03:43;21.33;;;13.73;;
80101;SDS011;69407;44.966;19.622;2023-07-24T04:06:09;23.00;;;14.15;;
80101;SDS011;69407;44.966;19.622;2023-07-24T04:08:34;24.77;;;13.70;;
80101;SDS011;69407;44.966;19.622;2023-07-24T04:11:00;24.53;;;14.83;;
80101;SDS011;69407;44.966;19.622;2023-07-24T04:13:25;24.15;;;13.77;;
80101;SDS011;69407;44.966;19.622;2023-07-24T04:15:50;21.03;;;13.30;;
80101;SDS011;69407;44.966;19.622;2023-07-24T04:18:16;27.93;;;14.17;;
80101;SDS011;69407;44.966;19.622;2023-07-24T04:20:41;18.40;;;12.80;;
80101;SDS011;69407;44.966;19.622;2023-07-24T04:23:06;21.80;;;13.10;;
80101;SDS011;69407;44.966;19.622;2023-07-24T04:25:31;23.08;;;14.75;;
80101;SDS011;69407;44.966;19.622;2023-07-24T04:27:57;21.50;;;12.67;;
80101;SDS011;69407;44.966;19.622;2023-07-24T04:30:22;25.53;;;15.33;;
80101;SDS011;69407;44.966;19.622;2023-07-24T04:32:47;25.38;;;15.35;;
80101;SDS011;69407;44.966;19.622;2023-07-24T04:35:13;26.00;;;15.73;;
80101;SDS011;69407;44.966;19.622;2023-07-24T04:37:38;20.63;;;14.00;;
80101;SDS011;69407;44.966;19.622;2023-07-24T04:40:03;24.40;;;15.90;;
80101;SDS011;69407;44.966;19.622;2023-07-24T04:42:29;31.00;;;15.30;;
80101;SDS011;69407;44.966;19.622;2023-07-24T04:44:55;25.33;;;15.02;;
80101;SDS011;69407;44.966;19.622;2023-07-24T04:47:20;25.10;;;15.00;;
80101;SDS011;69407;44.966;19.622;2023-07-24T04:49:45;23.77;;;15.07;;
80101;SDS011;69407;44.966;19.622;2023-07-24T04:52:10;26.67;;;15.15;;
80101;SDS011;69407;44.966;19.622;2023-07-24T04:54:36;29.25;;;15.55;;
80101;SDS011;69407;44.966;19.622;2023-07-24T04:57:01;23.57;;;15.80;;
80101;SDS011;69407;44.966;19.622;2023-07-24T04:59:26;25.27;;;15.85;;
80101;SDS011;69407;44.966;19.622;2023-07-24T05:01:52;23.13;;;15.30;;
80101;SDS011;69407;44.966;19.622;2023-07-24T05:04:17;25.30;;;16.93;;
80101;SDS011;69407;44.966;19.622;2023-07-24T05:06:42;28.23;;;17.33;;
80101;SDS011;69407;44.966;19.622;2023-07-24T05:09:07;24.13;;;15.83;;
80101;SDS011;69407;44.966;19.622;2023-07-24T05:11:33;23.63;;;14.87;;
80101;SDS011;69407;44.966;19.622;2023-07-24T05:13:58;24.05;;;17.60;;
80101;SDS011;69407;44.966;19.622;2023-07-24T05:16:23;23.40;;;15.63;;
80101;SDS011;69407;44.966;19.622;2023-07-24T05:18:49;24.30;;;15.93;;
80101;SDS011;69407;44.966;19.622;2023-07-24T05:21:14;23.40;;;15.33;;
80101;SDS011;69407;44.966;19.622;2023-07-24T05:23:39;23.07;;;15.00;;
80101;SDS011;69407;44.966;19.622;2023-07-24T05:26:04;24.87;;;15.60;;
80101;SDS011;69407;44.966;19.622;2023-07-24T05:28:30;26.52;;;17.08;;
80101;SDS011;69407;44.966;19.622;2023-07-24T05:30:56;21.38;;;14.95;;
80101;SDS011;69407;44.966;19.622;2023-07-24T05:33:21;22.77;;;15.88;;
80101;SDS011;69407;44.966;19.622;2023-07-24T05:35:48;24.83;;;16.45;;
80101;SDS011;69407;44.966;19.622;2023-07-24T05:38:13;22.27;;;14.85;;
80101;SDS011;69407;44.966;19.622;2023-07-24T05:40:38;23.47;;;13.87;;
80101;SDS011;69407;44.966;19.622;2023-07-24T05:43:04;19.48;;;14.95;;
80101;SDS011;69407;44.966;19.622;2023-07-24T05:45:29;20.90;;;15.10;;
80101;SDS011;69407;44.966;19.622;2023-07-24T05:47:54;26.58;;;15.90;;
80101;SDS011;69407;44.966;19.622;2023-07-24T05:50:20;25.33;;;16.20;;
80101;SDS011;69407;44.966;19.622;2023-07-24T05:52:45;24.67;;;15.77;;
80101;SDS011;69407;44.966;19.622;2023-07-24T05:55:10;23.80;;;15.30;;
80101;SDS011;69407;44.966;19.622;2023-07-24T05:57:36;24.70;;;15.43;;
80101;SDS011;69407;44.966;19.622;2023-07-24T06:00:03;21.98;;;15.38;;
80101;SDS011;69407;44.966;19.622;2023-07-24T06:02:28;21.23;;;15.70;;
80101;SDS011;69407;44.966;19.622;2023-07-24T06:04:54;26.83;;;16.57;;
80101;SDS011;69407;44.966;19.622;2023-07-24T06:07:19;25.98;;;16.80;;
80101;SDS011;69407;44.966;19.622;2023-07-24T06:09:44;26.35;;;16.50;;
80101;SDS011;69407;44.966;19.622;2023-07-24T06:12:10;19.00;;;14.90;;
80101;SDS011;69407;44.966;19.622;2023-07-24T06:14:35;21.77;;;14.27;;
80101;SDS011;69407;44.966;19.622;2023-07-24T06:17:00;22.07;;;14.57;;
80101;SDS011;69407;44.966;19.622;2023-07-24T06:19:26;23.00;;;14.57;;
80101;SDS011;69407;44.966;19.622;2023-07-24T06:21:54;24.77;;;16.17;;
80101;SDS011;69407;44.966;19.622;2023-07-24T06:24:19;21.98;;;15.15;;
80101;SDS011;69407;44.966;19.622;2023-07-24T06:26:45;24.05;;;16.13;;
80101;SDS011;69407;44.966;19.622;2023-07-24T06:29:11;21.07;;;14.20;;
80101;SDS011;69407;44.966;19.622;2023-07-24T06:31:36;23.77;;;14.03;;
80101;SDS011;69407;44.966;19.622;2023-07-24T06:34:02;21.95;;;15.50;;
80101;SDS011;69407;44.966;19.622;2023-07-24T06:36:27;21.20;;;13.50;;
80101;SDS011;69407;44.966;19.622;2023-07-24T06:38:52;17.63;;;13.57;;
80101;SDS011;69407;44.966;19.622;2023-07-24T06:41:18;19.67;;;12.50;;
80101;SDS011;69407;44.966;19.622;2023-07-24T06:43:45;19.48;;;13.98;;
80101;SDS011;69407;44.966;19.622;2023-07-24T06:46:10;18.83;;;13.52;;
80101;SDS011;69407;44.966;19.622;2023-07-24T06:48:35;19.90;;;12.60;;
80101;SDS011;69407;44.966;19.622;2023-07-24T06:51:01;20.35;;;13.75;;
80101;SDS011;69407;44.966;19.622;2023-07-24T06:53:26;20.27;;;13.70;;
80101;SDS011;69407;44.966;19.622;2023-07-24T06:55:51;29.93;;;13.77;;
80101;SDS011;69407;44.966;19.622;2023-07-24T06:58:16;19.33;;;13.80;;
80101;SDS011;69407;44.966;19.622;2023-07-24T07:00:42;24.40;;;12.53;;
80101;SDS011;69407;44.966;19.622;2023-07-24T07:03:07;20.48;;;12.98;;
80101;SDS011;69407;44.966;19.622;2023-07-24T07:05:32;19.60;;;12.93;;
80101;SDS011;69407;44.966;19.622;2023-07-24T07:07:57;19.87;;;12.43;;
80101;SDS011;69407;44.966;19.622;2023-07-24T07:10:23;18.37;;;11.30;;
80101;SDS011;69407;44.966;19.622;2023-07-24T07:12:48;18.63;;;11.00;;
80101;SDS011;69407;44.966;19.622;2023-07-24T07:15:13;17.52;;;12.15;;
80101;SDS011;69407;44.966;19.622;2023-07-24T07:17:39;16.88;;;11.10;;
80101;SDS011;69407;44.966;19.622;2023-07-24T07:20:04;17.45;;;10.85;;
80101;SDS011;69407;44.966;19.622;2023-07-24T07:22:30;17.52;;;11.35;;
80101;SDS011;69407;44.966;19.622;2023-07-24T07:24:55;15.32;;;10.60;;
80101;SDS011;69407;44.966;19.622;2023-07-24T07:27:21;19.50;;;11.40;;
80101;SDS011;69407;44.966;19.622;2023-07-24T07:29:46;16.50;;;10.95;;
80101;SDS011;69407;44.966;19.622;2023-07-24T07:32:11;16.45;;;10.88;;
80101;SDS011;69407;44.966;19.622;2023-07-24T07:34:37;16.40;;;11.05;;
80101;SDS011;69407;44.966;19.622;2023-07-24T07:37:04;14.35;;;10.18;;
80101;SDS011;69407;44.966;19.622;2023-07-24T07:39:29;14.38;;;10.30;;
80101;SDS011;69407;44.966;19.622;2023-07-24T07:41:54;17.50;;;10.20;;
80101;SDS011;69407;44.966;19.622;2023-07-24T07:44:19;17.85;;;11.48;;
80101;SDS011;69407;44.966;19.622;2023-07-24T07:46:45;16.77;;;10.25;;
80101;SDS011;69407;44.966;19.622;2023-07-24T07:49:10;18.05;;;10.68;;
80101;SDS011;69407;44.966;19.622;2023-07-24T07:51:35;15.37;;;10.77;;
80101;SDS011;69407;44.966;19.622;2023-07-24T07:54:01;17.95;;;9.93;;
80101;SDS011;69407;44.966;19.622;2023-07-24T07:56:26;14.73;;;9.82;;
80101;SDS011;69407;44.966;19.622;2023-07-24T07:58:51;17.83;;;9.30;;
80101;SDS011;69407;44.966;19.622;2023-07-24T08:01:16;17.03;;;9.80;;
80101;SDS011;69407;44.966;19.622;2023-07-24T08:03:42;14.37;;;8.97;;
80101;SDS011;69407;44.966;19.622;2023-07-24T08:06:07;15.93;;;9.65;;
80101;SDS011;69407;44.966;19.622;2023-07-24T08:08:33;16.27;;;9.00;;
80101;SDS011;69407;44.966;19.622;2023-07-24T08:11:03;14.38;;;9.95;;
80101;SDS011;69407;44.966;19.622;2023-07-24T08:13:28;17.65;;;10.75;;
80101;SDS011;69407;44.966;19.622;2023-07-24T08:15:53;14.82;;;12.35;;
80101;SDS011;69407;44.966;19.622;2023-07-24T08:18:19;14.63;;;11.60;;
80101;SDS011;69407;44.966;19.622;2023-07-24T08:20:44;14.20;;;12.13;;
80101;SDS011;69407;44.966;19.622;2023-07-24T08:23:09;15.23;;;11.97;;
80101;SDS011;69407;44.966;19.622;2023-07-24T08:25:34;13.80;;;11.37;;
80101;SDS011;69407;44.966;19.622;2023-07-24T08:28:00;16.43;;;12.53;;
80101;SDS011;69407;44.966;19.622;2023-07-24T08:30:25;17.10;;;13.13;;
80101;SDS011;69407;44.966;19.622;2023-07-24T08:32:50;14.82;;;12.10;;
80101;SDS011;69407;44.966;19.622;2023-07-24T08:35:16;18.08;;;11.93;;
80101;SDS011;69407;44.966;19.622;2023-07-24T08:37:44;13.75;;;10.32;;
80101;SDS011;69407;44.966;19.622;2023-07-24T08:40:10;17.95;;;10.30;;
80101;SDS011;69407;44.966;19.622;2023-07-24T08:42:37;13.70;;;10.25;;
80101;SDS011;69407;44.966;19.622;2023-07-24T08:45:03;13.35;;;9.73;;
80101;SDS011;69407;44.966;19.622;2023-07-24T08:47:28;16.02;;;9.80;;
80101;SDS011;69407;44.966;19.622;2023-07-24T08:49:54;14.68;;;9.07;;
80101;SDS011;69407;44.966;19.622;2023-07-24T08:52:20;14.20;;;9.88;;
80101;SDS011;69407;44.966;19.622;2023-07-24T08:54:45;13.68;;;9.88;;
80101;SDS011;69407;44.966;19.622;2023-07-24T08:57:12;17.05;;;10.10;;
80101;SDS011;69407;44.966;19.622;2023-07-24T08:59:38;15.32;;;8.90;;
80101;SDS011;69407;44.966;19.622;2023-07-24T09:02:03;13.27;;;9.13;;
80101;SDS011;69407;44.966;19.622;2023-07-24T09:04:29;14.52;;;9.18;;
80101;SDS011;69407;44.966;19.622;2023-07-24T09:06:55;16.90;;;10.02;;
80101;SDS011;69407;44.966;19.622;2023-07-24T09:09:21;15.73;;;9.30;;
80101;SDS011;69407;44.966;19.622;2023-07-24T09:11:49;12.90;;;9.35;;
80101;SDS011;69407;44.966;19.622;2023-07-24T09:14:21;14.60;;;9.52;;
80101;SDS011;69407;44.966;19.622;2023-07-24T09:16:47;16.08;;;10.07;;
80101;SDS011;69407;44.966;19.622;2023-07-24T09:19:18;15.10;;;9.40;;
80101;SDS011;69407;44.966;19.622;2023-07-24T09:21:44;12.93;;;8.73;;
80101;SDS011;69407;44.966;19.622;2023-07-24T09:24:12;14.85;;;9.00;;
80101;SDS011;69407;44.966;19.622;2023-07-24T09:26:51;13.07;;;8.65;;
80101;SDS011;69407;44.966;19.622;2023-07-24T09:29:17;16.63;;;8.95;;
80101;SDS011;69407;44.966;19.622;2023-07-24T09:31:42;13.10;;;7.90;;
80101;SDS011;69407;44.966;19.622;2023-07-24T09:34:17;14.05;;;9.00;;
80101;SDS011;69407;44.966;19.622;2023-07-24T09:36:43;14.57;;;9.00;;
80101;SDS011;69407;44.966;19.622;2023-07-24T09:39:09;16.75;;;8.35;;
80101;SDS011;69407;44.966;19.622;2023-07-24T09:41:36;15.60;;;9.90;;
80101;SDS011;69407;44.966;19.622;2023-07-24T09:44:02;14.20;;;8.50;;
80101;SDS011;69407;44.966;19.622;2023-07-24T09:46:27;19.13;;;9.95;;
80101;SDS011;69407;44.966;19.622;2023-07-24T09:48:55;14.52;;;9.30;;
80101;SDS011;69407;44.966;19.622;2023-07-24T09:51:21;13.15;;;8.48;;
80101;SDS011;69407;44.966;19.622;2023-07-24T09:53:52;16.13;;;9.48;;
80101;SDS011;69407;44.966;19.622;2023-07-24T09:56:20;16.20;;;9.15;;
80101;SDS011;69407;44.966;19.622;2023-07-24T09:58:46;20.58;;;9.95;;
80101;SDS011;69407;44.966;19.622;2023-07-24T10:01:14;14.80;;;8.98;;
80101;SDS011;69407;44.966;19.622;2023-07-24T10:03:43;16.10;;;9.02;;
80101;SDS011;69407;44.966;19.622;2023-07-24T10:06:10;14.68;;;9.13;;
80101;SDS011;69407;44.966;19.622;2023-07-24T10:08:36;14.95;;;10.32;;
80101;SDS011;69407;44.966;19.622;2023-07-24T10:11:02;13.75;;;9.15;;
80101;SDS011;69407;44.966;19.622;2023-07-24T10:13:27;15.63;;;9.25;;
80101;SDS011;69407;44.966;19.622;2023-07-24T10:15:53;17.83;;;8.85;;
80101;SDS011;69407;44.966;19.622;2023-07-24T10:18:25;14.60;;;9.07;;
80101;SDS011;69407;44.966;19.622;2023-07-24T10:20:59;16.35;;;9.35;;
80101;SDS011;69407;44.966;19.622;2023-07-24T10:23:24;13.80;;;8.23;;
80101;SDS011;69407;44.966;19.622;2023-07-24T10:25:50;14.55;;;8.68;;
80101;SDS011;69407;44.966;19.622;2023-07-24T10:28:17;15.10;;;8.93;;
80101;SDS011;69407;44.966;19.622;2023-07-24T10:30:43;14.45;;;9.20;;
80101;SDS011;69407;44.966;19.622;2023-07-24T10:33:19;14.75;;;9.45;;
80101;SDS011;69407;44.966;19.622;2023-07-24T10:35:45;18.38;;;9.65;;
80101;SDS011;69407;44.966;19.622;2023-07-24T10:38:15;16.10;;;9.75;;
80101;SDS011;69407;44.966;19.622;2023-07-24T10:40:41;17.40;;;9.90;;
80101;SDS011;69407;44.966;19.622;2023-07-24T10:43:07;14.65;;;9.35;;
80101;SDS011;69407;44.966;19.622;2023-07-24T10:48:11;17.73;;;9.85;;
80101;SDS011;69407;44.966;19.622;2023-07-24T10:50:38;15.57;;;9.73;;
80101;SDS011;69407;44.966;19.622;2023-07-24T10:53:03;15.05;;;9.20;;
80101;SDS011;69407;44.966;19.622;2023-07-24T10:55:28;18.77;;;9.20;;
80101;SDS011;69407;44.966;19.622;2023-07-24T10:57:54;16.08;;;9.43;;
80101;SDS011;69407;44.966;19.622;2023-07-24T11:00:19;15.55;;;8.70;;
80101;SDS011;69407;44.966;19.622;2023-07-24T11:02:44;17.75;;;9.18;;
80101;SDS011;69407;44.966;19.622;2023-07-24T11:05:10;16.27;;;10.00;;
80101;SDS011;69407;44.966;19.622;2023-07-24T11:07:37;15.27;;;8.60;;
80101;SDS011;69407;44.966;19.622;2023-07-24T11:10:02;15.80;;;8.18;;
80101;SDS011;69407;44.966;19.622;2023-07-24T11:12:27;14.52;;;9.40;;
80101;SDS011;69407;44.966;19.622;2023-07-24T11:14:55;16.92;;;8.95;;
80101;SDS011;69407;44.966;19.622;2023-07-24T11:17:21;13.55;;;8.13;;
80101;SDS011;69407;44.966;19.622;2023-07-24T11:19:46;15.65;;;9.18;;
80101;SDS011;69407;44.966;19.622;2023-07-24T11:22:12;14.70;;;8.48;;
80101;SDS011;69407;44.966;19.622;2023-07-24T11:24:45;15.02;;;9.23;;
80101;SDS011;69407;44.966;19.622;2023-07-24T11:27:14;15.80;;;9.30;;
80101;SDS011;69407;44.966;19.622;2023-07-24T11:29:40;16.25;;;8.85;;
80101;SDS011;69407;44.966;19.622;2023-07-24T11:32:05;15.68;;;9.20;;
80101;SDS011;69407;44.966;19.622;2023-07-24T11:34:31;16.77;;;9.25;;
80101;SDS011;69407;44.966;19.622;2023-07-24T11:36:56;17.90;;;9.18;;
80101;SDS011;69407;44.966;19.622;2023-07-24T11:39:22;13.95;;;8.68;;
80101;SDS011;69407;44.966;19.622;2023-07-24T11:41:48;16.23;;;9.23;;
80101;SDS011;69407;44.966;19.622;2023-07-24T11:44:13;13.90;;;8.35;;
80101;SDS011;69407;44.966;19.622;2023-07-24T11:46:41;18.00;;;8.93;;
80101;SDS011;69407;44.966;19.622;2023-07-24T11:49:08;15.80;;;9.02;;
80101;SDS011;69407;44.966;19.622;2023-07-24T11:51:33;15.25;;;9.20;;
80101;SDS011;69407;44.966;19.622;2023-07-24T11:54:07;15.70;;;8.13;;
80101;SDS011;69407;44.966;19.622;2023-07-24T11:56:33;16.73;;;9.63;;
80101;SDS011;69407;44.966;19.622;2023-07-24T11:59:08;17.50;;;8.93;;
80101;SDS011;69407;44.966;19.622;2023-07-24T12:01:33;16.05;;;9.55;;
80101;SDS011;69407;44.966;19.622;2023-07-24T12:03:59;12.88;;;8.93;;
80101;SDS011;69407;44.966;19.622;2023-07-24T12:06:24;15.40;;;8.32;;
80101;SDS011;69407;44.966;19.622;2023-07-24T12:08:51;16.25;;;7.13;;
80101;SDS011;69407;44.966;19.622;2023-07-24T12:11:17;14.90;;;8.73;;
80101;SDS011;69407;44.966;19.622;2023-07-24T12:13:45;15.73;;;9.38;;
80101;SDS011;69407;44.966;19.622;2023-07-24T12:16:10;15.65;;;9.48;;
80101;SDS011;69407;44.966;19.622;2023-07-24T12:18:36;15.93;;;9.10;;
80101;SDS011;69407;44.966;19.622;2023-07-24T12:21:01;15.83;;;8.87;;
80101;SDS011;69407;44.966;19.622;2023-07-24T12:23:26;14.77;;;9.00;;
80101;SDS011;69407;44.966;19.622;2023-07-24T12:25:52;15.25;;;8.70;;
80101;SDS011;69407;44.966;19.622;2023-07-24T12:28:17;15.10;;;8.20;;
80101;SDS011;69407;44.966;19.622;2023-07-24T12:30:42;15.43;;;9.00;;
80101;SDS011;69407;44.966;19.622;2023-07-24T12:33:08;16.93;;;8.57;;
80101;SDS011;69407;44.966;19.622;2023-07-24T12:35:33;15.97;;;9.60;;
80101;SDS011;69407;44.966;19.622;2023-07-24T12:37:58;12.63;;;9.13;;
80101;SDS011;69407;44.966;19.622;2023-07-24T12:40:24;14.27;;;8.90;;
80101;SDS011;69407;44.966;19.622;2023-07-24T12:42:49;14.18;;;8.95;;
80101;SDS011;69407;44.966;19.622;2023-07-24T12:45:14;16.33;;;8.40;;
80101;SDS011;69407;44.966;19.622;2023-07-24T12:47:40;15.23;;;8.27;;
80101;SDS011;69407;44.966;19.622;2023-07-24T12:50:05;13.60;;;8.93;;
80101;SDS011;69407;44.966;19.622;2023-07-24T12:52:30;12.23;;;7.53;;
80101;SDS011;69407;44.966;19.622;2023-07-24T12:54:56;15.13;;;9.73;;
80101;SDS011;69407;44.966;19.622;2023-07-24T12:57:21;14.37;;;9.20;;
80101;SDS011;69407;44.966;19.622;2023-07-24T12:59:46;16.83;;;8.43;;
80101;SDS011;69407;44.966;19.622;2023-07-24T13:02:12;13.77;;;8.20;;
80101;SDS011;69407;44.966;19.622;2023-07-24T13:04:37;16.10;;;8.45;;
80101;SDS011;69407;44.966;19.622;2023-07-24T13:07:02;13.57;;;8.80;;
80101;SDS011;69407;44.966;19.622;2023-07-24T13:11:54;16.17;;;9.05;;
80101;SDS011;69407;44.966;19.622;2023-07-24T13:14:20;14.68;;;8.48;;
80101;SDS011;69407;44.966;19.622;2023-07-24T13:16:46;15.40;;;8.80;;
80101;SDS011;69407;44.966;19.622;2023-07-24T13:19:11;18.73;;;8.82;;
80101;SDS011;69407;44.966;19.622;2023-07-24T13:21:36;17.98;;;9.35;;
80101;SDS011;69407;44.966;19.622;2023-07-24T13:24:02;15.48;;;9.32;;
80101;SDS011;69407;44.966;19.622;2023-07-24T13:26:27;17.83;;;8.88;;
80101;SDS011;69407;44.966;19.622;2023-07-24T13:28:52;17.63;;;8.75;;
80101;SDS011;69407;44.966;19.622;2023-07-24T13:31:19;14.10;;;8.43;;
80101;SDS011;69407;44.966;19.622;2023-07-24T13:33:45;16.52;;;8.75;;
80101;SDS011;69407;44.966;19.622;2023-07-24T13:36:10;13.85;;;8.30;;
80101;SDS011;69407;44.966;19.622;2023-07-24T13:38:35;18.40;;;10.05;;
80101;SDS011;69407;44.966;19.622;2023-07-24T13:41:01;18.85;;;8.25;;
80101;SDS011;69407;44.966;19.622;2023-07-24T13:43:27;15.95;;;9.15;;
80101;SDS011;69407;44.966;19.622;2023-07-24T13:45:52;18.92;;;9.85;;
80101;SDS011;69407;44.966;19.622;2023-07-24T13:48:18;17.70;;;9.70;;
80101;SDS011;69407;44.966;19.622;2023-07-24T13:50:43;16.27;;;9.48;;
80101;SDS011;69407;44.966;19.622;2023-07-24T13:53:08;17.70;;;9.97;;
80101;SDS011;69407;44.966;19.622;2023-07-24T13:55:34;14.50;;;8.32;;
80101;SDS011;69407;44.966;19.622;2023-07-24T13:57:59;16.95;;;9.77;;
80101;SDS011;69407;44.966;19.622;2023-07-24T14:00:25;18.43;;;9.67;;
80101;SDS011;69407;44.966;19.622;2023-07-24T14:02:51;15.52;;;9.40;;
80101;SDS011;69407;44.966;19.622;2023-07-24T14:05:16;14.50;;;9.07;;
80101;SDS011;69407;44.966;19.622;2023-07-24T14:07:42;15.18;;;8.85;;
80101;SDS011;69407;44.966;19.622;2023-07-24T14:10:08;15.30;;;9.18;;